Date,TemperatureHighF,TemperatureAvgF,TemperatureLowF,DewpointHighF,DewpointAvgF,DewpointLowF,HumidityHigh,HumidityAvg,HumidityLow,PressureMaxIn,PressureMinIn,WindSpeedMaxMPH,WindSpeedAvgMPH,GustSpeedMaxMPH,PrecipitationSumIn
2013-11-1,72,55,40,55,47,40,100,77,47,30.00,29.82,16,2,16,0.24
2013-11-2,61,51,38,44,40,36,99,68,52,30.29,30.00,15,3,15,0.24
2013-11-3,63,48,32,45,39,32,100,76,52,30.32,30.09,14,2,14,0.24
2013-11-4,57,52,48,53,46,40,100,81,65,30.23,30.14,11,2,11,0.20
2013-11-5,61,58,53,60,58,53,100,98,86,30.23,30.03,8,2,8,1.18
2013-11-6,63,53,36,63,49,32,100,87,66,30.41,29.94,13,4,13,1.10
2013-11-7,61,43,30,44,38,30,100,85,53,30.56,30.38,8,1,8,0.24
2013-11-8,64,48,34,46,40,34,100,78,52,30.44,30.20,12,2,12,0.24
2013-11-9,64,52,42,49,46,42,100,82,54,30.32,30.17,9,1,9,0.24
2013-11-10,66,53,44,53,47,44,100,81,48,30.44,30.32,6,1,8,0.24
2013-11-11,69,52,39,51,46,39,100,81,51,30.35,30.20,9,1,9,0.00
2013-11-12,60,42,25,52,28,18,87,59,44,30.82,30.32,15,4,15,0.00
2013-11-13,48,32,20,28,23,18,98,73,47,30.82,30.47,6,1,7,0.00
2013-11-14,54,40,22,37,29,19,98,67,48,30.47,30.11,10,2,10,0.00
2013-11-15,53,48,43,52,43,35,100,84,68,30.11,29.94,8,3,8,0.00
2013-11-16,72,63,53,68,57,51,100,82,60,29.97,29.70,17,4,17,0.71
2013-11-17,79,67,43,70,56,36,100,71,41,30.11,29.61,26,4,26,0.00
2013-11-18,68,51,37,45,37,31,85,62,43,30.29,30.11,13,2,13,0.00
2013-11-19,57,47,38,38,35,30,89,64,47,30.35,30.17,13,3,13,0.00
2013-11-20,60,50,40,41,35,30,66,57,50,30.20,29.97,9,4,10,0.00
2013-11-21,57,55,52,56,48,39,100,79,54,30.20,30.06,8,3,8,0.24
2013-11-22,56,46,39,56,40,34,100,82,67,30.53,30.20,8,3,10,0.08
2013-11-23,47,40,31,35,28,16,88,63,47,30.73,30.53,14,3,14,0.00
2013-11-24,33,29,24,20,16,11,61,57,51,30.79,30.47,13,3,13,0.00
2013-11-25,34,32,29,34,26,18,100,81,56,30.47,30.20,9,2,9,0.12
2013-11-26,50,39,34,38,31,21,100,75,54,30.32,30.06,18,4,18,0.00
2013-11-27,42,31,21,24,18,13,85,59,48,30.50,30.32,9,3,13,0.00
2013-11-28,50,32,17,32,24,16,96,74,49,30.53,30.41,12,2,12,0.00
2013-11-29,57,37,22,39,29,22,100,77,47,30.62,30.41,7,2,8,0.00
2013-11-30,58,41,26,43,35,26,100,81,55,30.44,30.20,6,2,6,0.00